createdAt,value
2023-03-06T00:00:36.042Z,22.58
2023-03-06T00:03:02.965Z,22.58
2023-03-06T00:05:29.559Z,24.38
2023-03-06T00:07:56.352Z,23.42
2023-03-06T00:10:26.583Z,23.00
2023-03-06T00:12:58.115Z,24.13
2023-03-06T00:15:25.820Z,23.90
2023-03-06T00:17:52.720Z,22.83
2023-03-06T00:20:20.841Z,23.73
2023-03-06T00:22:48.022Z,23.05
2023-03-06T00:25:17.992Z,23.40
2023-03-06T00:27:44.903Z,21.20
2023-03-06T00:30:14.730Z,23.05
2023-03-06T00:32:42.583Z,23.17
2023-03-06T00:35:09.783Z,22.35
2023-03-06T00:37:36.530Z,22.02
2023-03-06T00:40:06.308Z,21.60
2023-03-06T00:42:32.866Z,22.20
2023-03-06T00:44:59.410Z,22.48
2023-03-06T00:47:25.926Z,22.60
2023-03-06T00:49:52.429Z,22.63
2023-03-06T00:52:19.017Z,20.83
2023-03-06T00:54:45.579Z,22.92
2023-03-06T00:57:12.064Z,20.63
2023-03-06T00:59:38.685Z,22.90
2023-03-06T01:02:06.561Z,22.42
2023-03-06T01:04:33.189Z,21.38
2023-03-06T01:06:59.758Z,21.67
2023-03-06T01:09:26.321Z,23.17
2023-03-06T01:11:53.743Z,19.88
2023-03-06T01:14:20.285Z,20.17
2023-03-06T01:16:47.315Z,22.63
2023-03-06T01:19:17.199Z,20.75
2023-03-06T01:21:44.944Z,21.50
2023-03-06T01:24:11.566Z,23.25
2023-03-06T01:26:38.161Z,20.02
2023-03-06T01:29:04.830Z,20.58
2023-03-06T01:31:31.957Z,21.80
2023-03-06T01:33:58.556Z,22.27
2023-03-06T01:36:25.128Z,21.80
2023-03-06T01:38:51.760Z,23.05
2023-03-06T01:41:21.157Z,20.38
2023-03-06T01:43:48.644Z,21.80
2023-03-06T01:46:37.989Z,21.90
2023-03-06T01:49:26.772Z,20.92
2023-03-06T01:51:53.230Z,23.23
2023-03-06T01:54:27.022Z,22.80
2023-03-06T01:57:02.704Z,22.05
2023-03-06T01:59:30.288Z,21.05
2023-03-06T02:01:58.465Z,22.33
2023-03-06T02:04:25.072Z,22.70
2023-03-06T02:06:51.937Z,23.23
2023-03-06T02:09:18.655Z,22.17
2023-03-06T02:11:46.311Z,22.17
2023-03-06T02:14:16.337Z,22.90
2023-03-06T02:16:44.263Z,23.60
2023-03-06T02:19:27.652Z,22.88
2023-03-06T02:21:54.657Z,23.15
2023-03-06T02:24:43.680Z,22.42
2023-03-06T02:27:12.533Z,23.02
2023-03-06T02:29:39.038Z,20.17
2023-03-06T02:32:05.943Z,22.65
2023-03-06T02:34:45.973Z,22.88
2023-03-06T02:37:12.616Z,22.48
2023-03-06T02:39:53.146Z,22.88
2023-03-06T02:42:26.576Z,21.17
2023-03-06T02:44:56.616Z,21.02
2023-03-06T02:47:23.199Z,22.85
2023-03-06T02:49:49.738Z,22.02
2023-03-06T02:52:17.846Z,23.42
2023-03-06T02:54:44.426Z,23.23
2023-03-06T02:57:12.020Z,22.35
2023-03-06T02:59:38.881Z,21.42
2023-03-06T03:02:06.119Z,22.20
2023-03-06T03:04:34.203Z,22.55
2023-03-06T03:07:01.541Z,22.33
2023-03-06T03:09:28.393Z,21.50
2023-03-06T03:11:54.931Z,23.08
2023-03-06T03:14:23.917Z,21.50
2023-03-06T03:16:50.416Z,23.90
2023-03-06T03:19:17.300Z,23.20
2023-03-06T03:21:43.845Z,21.98
2023-03-06T03:24:10.435Z,23.10
2023-03-06T03:26:37.000Z,20.70
2023-03-06T03:29:10.713Z,21.17
2023-03-06T03:31:37.581Z,20.77
2023-03-06T03:34:04.154Z,21.08
2023-03-06T03:36:33.902Z,22.40
2023-03-06T03:39:00.643Z,21.33
2023-03-06T03:41:27.310Z,20.40
2023-03-06T03:43:53.828Z,22.98
2023-03-06T03:46:21.563Z,21.42
2023-03-06T03:48:49.291Z,21.92
2023-03-06T03:51:17.616Z,24.45
2023-03-06T03:53:49.293Z,22.95
2023-03-06T03:56:19.487Z,22.25
2023-03-06T03:58:54.558Z,23.05
2023-03-06T04:01:22.194Z,21.67
2023-03-06T04:03:49.031Z,22.13
2023-03-06T04:06:17.546Z,24.23
2023-03-06T04:08:44.745Z,21.50
2023-03-06T04:11:11.861Z,22.60
2023-03-06T04:13:38.418Z,22.58
2023-03-06T04:16:06.100Z,23.38
2023-03-06T04:18:34.054Z,21.35
2023-03-06T04:21:04.399Z,23.35
2023-03-06T04:23:31.868Z,22.75
2023-03-06T04:25:58.821Z,21.95
2023-03-06T04:28:25.581Z,22.92
2023-03-06T04:30:52.269Z,23.67
2023-03-06T04:33:19.885Z,23.30
2023-03-06T04:35:46.468Z,24.63
2023-03-06T04:38:18.798Z,23.88
2023-03-06T04:40:45.626Z,23.10
2023-03-06T04:43:12.366Z,23.05
2023-03-06T04:45:39.065Z,22.73
2023-03-06T04:48:05.968Z,23.15
2023-03-06T04:50:32.575Z,23.17
2023-03-06T04:53:03.480Z,24.02
2023-03-06T04:55:30.691Z,23.20
2023-03-06T04:57:57.727Z,21.70
2023-03-06T05:00:30.521Z,21.98
2023-03-06T05:02:59.642Z,22.50
2023-03-06T05:05:26.772Z,24.33
2023-03-06T05:07:54.648Z,23.58
2023-03-06T05:10:21.617Z,22.73
2023-03-06T05:12:48.197Z,23.38
2023-03-06T05:15:14.727Z,23.40
2023-03-06T05:17:41.610Z,23.48
2023-03-06T05:20:11.968Z,22.17
2023-03-06T05:22:38.596Z,24.13
2023-03-06T05:25:05.762Z,23.20
2023-03-06T05:27:32.297Z,22.83
2023-03-06T05:29:59.236Z,24.00
2023-03-06T05:32:25.891Z,23.20
2023-03-06T05:34:52.462Z,25.10
2023-03-06T05:37:19.137Z,23.38
2023-03-06T05:39:45.835Z,23.83
2023-03-06T05:42:12.367Z,24.58
2023-03-06T05:44:38.982Z,23.42
2023-03-06T05:47:05.691Z,24.48
2023-03-06T05:49:34.290Z,23.65
2023-03-06T05:52:03.903Z,22.85
2023-03-06T05:54:32.014Z,24.17
2023-03-06T05:56:58.713Z,23.90
2023-03-06T05:59:28.408Z,23.83
2023-03-06T06:01:56.086Z,23.80
2023-03-06T06:04:23.966Z,23.30
2023-03-06T06:06:58.978Z,25.30
2023-03-06T06:09:26.815Z,24.63
2023-03-06T06:12:02.034Z,24.23
2023-03-06T06:14:29.953Z,23.13
2023-03-06T06:16:56.630Z,22.73
2023-03-06T06:19:23.168Z,22.60
2023-03-06T06:21:51.841Z,24.73
2023-03-06T06:24:21.019Z,25.52
2023-03-06T06:26:50.367Z,25.15
2023-03-06T06:29:17.089Z,24.13
2023-03-06T06:31:43.618Z,23.52
2023-03-06T06:34:13.584Z,24.55
2023-03-06T06:36:40.632Z,26.85
2023-03-06T06:39:08.649Z,27.55
2023-03-06T06:41:54.960Z,26.02
2023-03-06T06:44:21.933Z,26.20
2023-03-06T06:47:21.393Z,25.38
2023-03-06T06:49:37.168Z,23.45
2023-03-06T06:52:05.273Z,23.95
2023-03-06T06:54:33.512Z,25.85
2023-03-06T06:57:00.556Z,25.38
2023-03-06T06:59:27.037Z,24.77
2023-03-06T07:01:53.613Z,25.35
2023-03-06T07:04:20.453Z,25.40
2023-03-06T07:06:46.986Z,24.75
2023-03-06T07:09:14.065Z,23.88
2023-03-06T07:11:41.234Z,26.27
2023-03-06T07:14:07.806Z,25.27
2023-03-06T07:16:34.411Z,25.20
2023-03-06T07:19:00.905Z,25.63
2023-03-06T07:21:27.519Z,25.20
2023-03-06T07:23:57.159Z,26.00
2023-03-06T07:26:27.471Z,27.20
2023-03-06T07:28:54.333Z,28.17
2023-03-06T07:31:23.360Z,28.50
2023-03-06T07:33:50.801Z,29.10
2023-03-06T07:36:17.945Z,27.85
2023-03-06T07:38:44.692Z,25.73
2023-03-06T07:41:13.592Z,25.48
2023-03-06T07:43:41.679Z,26.40
2023-03-06T07:46:09.735Z,27.33
2023-03-06T07:48:37.699Z,26.08
2023-03-06T07:51:13.161Z,28.27
2023-03-06T07:53:39.614Z,27.13
2023-03-06T07:56:08.980Z,26.15
2023-03-06T07:58:37.741Z,24.35
2023-03-06T08:01:06.245Z,25.83
2023-03-06T08:03:33.308Z,26.58
2023-03-06T08:06:13.941Z,26.40
2023-03-06T08:08:42.413Z,26.70
2023-03-06T08:11:10.549Z,27.25
2023-03-06T08:13:37.496Z,26.67
2023-03-06T08:16:05.200Z,30.38
2023-03-06T08:18:32.007Z,30.13
2023-03-06T08:21:06.852Z,28.75
2023-03-06T08:23:34.146Z,27.88
2023-03-06T08:26:04.441Z,28.52
2023-03-06T08:28:31.455Z,27.27
2023-03-06T08:30:58.459Z,27.35
2023-03-06T08:33:25.127Z,28.63
2023-03-06T08:35:52.661Z,28.65
2023-03-06T08:38:19.189Z,28.38
2023-03-06T08:40:45.665Z,28.27
2023-03-06T08:45:41.007Z,27.30
2023-03-06T08:48:07.525Z,27.90
2023-03-06T08:53:00.577Z,27.20
2023-03-06T08:55:28.171Z,26.85
2023-03-06T08:57:54.688Z,26.10
2023-03-06T09:00:21.473Z,24.90
2023-03-06T09:02:47.991Z,25.23
2023-03-06T09:05:14.509Z,25.40
2023-03-06T09:07:40.961Z,24.48
2023-03-06T09:12:48.632Z,25.10
2023-03-06T09:15:17.379Z,23.45
2023-03-06T09:17:43.996Z,23.05
2023-03-06T09:20:11.864Z,22.00
2023-03-06T09:22:38.762Z,22.67
2023-03-06T09:25:06.094Z,21.60
2023-03-06T09:27:33.005Z,21.40
2023-03-06T09:29:59.491Z,20.55
2023-03-06T09:34:52.585Z,19.08
2023-03-06T09:37:19.049Z,19.02
2023-03-06T09:42:23.658Z,18.90
2023-03-06T09:44:54.465Z,16.15
2023-03-06T09:47:56.660Z,17.77
2023-03-06T09:50:39.871Z,18.58
2023-03-06T09:53:23.195Z,15.68
2023-03-06T09:56:31.843Z,16.77
2023-03-06T09:59:13.865Z,17.63
2023-03-06T10:01:43.265Z,16.92
2023-03-06T10:04:32.222Z,15.60
2023-03-06T10:07:04.469Z,15.40
2023-03-06T10:09:48.904Z,16.50
2023-03-06T10:12:23.657Z,15.95
2023-03-06T10:15:10.541Z,15.48
2023-03-06T10:17:43.761Z,15.88
2023-03-06T10:20:18.841Z,16.63
2023-03-06T10:23:01.195Z,15.45
2023-03-06T10:25:42.942Z,15.32
2023-03-06T10:28:18.143Z,14.85
2023-03-06T10:30:55.731Z,13.98
2023-03-06T10:33:51.517Z,13.57
2023-03-06T10:36:20.461Z,13.55
2023-03-06T10:38:48.703Z,12.38
2023-03-06T10:41:24.944Z,11.68
2023-03-06T10:44:00.571Z,13.03
2023-03-06T10:46:29.506Z,10.90
2023-03-06T10:49:02.528Z,9.93
2023-03-06T10:51:31.111Z,10.80
2023-03-06T10:54:01.450Z,10.52
2023-03-06T10:56:36.495Z,10.88
2023-03-06T10:59:08.785Z,9.95
2023-03-06T11:01:35.577Z,9.88
2023-03-06T11:04:21.205Z,10.70
2023-03-06T11:06:48.078Z,11.75
2023-03-06T11:09:22.137Z,12.02
2023-03-06T11:11:50.012Z,10.73
2023-03-06T11:14:27.502Z,10.80
2023-03-06T11:16:54.355Z,11.63
2023-03-06T11:19:27.314Z,11.15
2023-03-06T11:22:17.763Z,11.25
2023-03-06T11:24:49.045Z,10.18
2023-03-06T11:27:36.631Z,9.90
2023-03-06T11:32:45.809Z,11.05
2023-03-06T11:35:20.378Z,10.68
2023-03-06T11:37:54.943Z,10.65
2023-03-06T11:40:30.193Z,9.48
2023-03-06T11:43:17.343Z,10.43
2023-03-06T11:46:02.273Z,11.00
2023-03-06T11:48:37.997Z,10.48
2023-03-06T11:51:35.703Z,10.60
2023-03-06T11:54:03.168Z,8.93
2023-03-06T11:56:51.659Z,9.55
2023-03-06T11:59:31.929Z,12.20
2023-03-06T12:02:20.291Z,10.73
2023-03-06T12:04:55.035Z,11.27
2023-03-06T12:07:25.464Z,10.32
2023-03-06T12:10:17.259Z,10.68
2023-03-06T12:13:08.864Z,10.57
2023-03-06T12:16:07.987Z,10.00
2023-03-06T12:19:13.708Z,10.85
2023-03-06T12:22:12.693Z,9.85
2023-03-06T12:25:05.617Z,10.30
2023-03-06T12:27:44.133Z,10.80
2023-03-06T12:30:13.672Z,10.52
2023-03-06T12:33:05.209Z,10.95
2023-03-06T12:35:37.393Z,11.35
2023-03-06T12:38:40.834Z,10.32
2023-03-06T12:41:22.802Z,10.57
2023-03-06T12:44:01.302Z,11.23
2023-03-06T12:46:30.434Z,11.55
2023-03-06T12:49:32.085Z,12.45
2023-03-06T12:52:00.932Z,13.00
2023-03-06T12:54:30.631Z,14.48
2023-03-06T12:56:59.727Z,12.30
2023-03-06T12:59:37.115Z,12.18
2023-03-06T13:02:17.861Z,12.27
2023-03-06T13:04:56.785Z,11.98
2023-03-06T13:07:45.473Z,12.77
2023-03-06T13:10:29.246Z,11.25
2023-03-06T13:13:01.612Z,11.27
2023-03-06T13:16:04.112Z,11.48
2023-03-06T13:18:33.554Z,11.55
2023-03-06T13:21:00.048Z,10.77
2023-03-06T13:23:33.468Z,12.15
2023-03-06T13:26:05.375Z,10.85
2023-03-06T13:28:45.051Z,13.00
2023-03-06T13:31:26.433Z,12.18
2023-03-06T13:33:58.505Z,11.65
2023-03-06T13:36:27.782Z,11.00
2023-03-06T13:38:54.367Z,12.30
2023-03-06T13:41:20.828Z,12.90
2023-03-06T13:46:24.866Z,11.75
2023-03-06T13:49:09.532Z,11.15
2023-03-06T13:51:42.134Z,11.75
2023-03-06T13:54:29.782Z,11.73
2023-03-06T13:57:27.480Z,12.10
2023-03-06T14:00:27.955Z,12.73
2023-03-06T14:03:31.009Z,11.93
2023-03-06T14:05:58.901Z,12.05
2023-03-06T14:08:31.681Z,12.98
2023-03-06T14:11:17.148Z,13.07
2023-03-06T14:13:49.733Z,13.73
2023-03-06T14:16:32.665Z,13.70
2023-03-06T14:19:04.143Z,14.70
2023-03-06T14:21:51.066Z,13.02
2023-03-06T14:24:19.814Z,12.15
2023-03-06T14:26:49.888Z,12.25
2023-03-06T14:29:25.231Z,12.43
2023-03-06T14:31:53.916Z,12.93
2023-03-06T14:34:32.854Z,13.35
2023-03-06T14:37:05.609Z,12.82
2023-03-06T14:39:41.684Z,13.65
2023-03-06T14:42:21.041Z,14.68
2023-03-06T14:44:49.675Z,13.18
2023-03-06T14:47:33.950Z,12.68
2023-03-06T14:50:36.264Z,12.98
2023-03-06T14:53:19.278Z,13.40
2023-03-06T14:55:57.996Z,13.52
2023-03-06T14:58:33.377Z,13.38
2023-03-06T15:01:04.983Z,13.13
2023-03-06T15:03:42.797Z,12.25
2023-03-06T15:06:25.112Z,12.32
2023-03-06T15:09:07.583Z,15.40
2023-03-06T15:11:58.812Z,15.02
2023-03-06T15:14:42.392Z,13.82
2023-03-06T15:17:17.944Z,14.50
2023-03-06T15:19:54.473Z,12.88
2023-03-06T15:22:34.521Z,14.05
2023-03-06T15:25:24.256Z,15.18
2023-03-06T15:27:56.717Z,12.32
2023-03-06T15:30:29.174Z,12.20
2023-03-06T15:33:11.159Z,13.30
2023-03-06T15:35:38.554Z,12.63
2023-03-06T15:38:23.744Z,14.02
2023-03-06T15:40:55.692Z,11.75
2023-03-06T15:43:22.220Z,15.20
2023-03-06T15:45:48.820Z,13.68
2023-03-06T15:48:18.382Z,13.18
2023-03-06T15:50:44.925Z,12.48
2023-03-06T15:53:11.383Z,12.65
2023-03-06T15:58:04.701Z,12.88
2023-03-06T16:00:34.222Z,13.23
2023-03-06T16:03:01.875Z,12.38
2023-03-06T16:05:29.433Z,14.48
2023-03-06T16:07:56.593Z,13.00
2023-03-06T16:10:27.287Z,13.32
2023-03-06T16:12:56.997Z,14.55
2023-03-06T16:15:29.682Z,13.23
2023-03-06T16:17:57.258Z,13.48
2023-03-06T16:20:25.652Z,12.63
2023-03-06T16:22:55.268Z,14.57
2023-03-06T16:25:24.685Z,13.32
2023-03-06T16:27:59.064Z,14.50
2023-03-06T16:30:31.269Z,14.02
2023-03-06T16:32:58.177Z,13.65
2023-03-06T16:35:25.867Z,14.98
2023-03-06T16:37:52.646Z,13.95
2023-03-06T16:40:25.153Z,13.32
2023-03-06T16:42:54.044Z,15.13
2023-03-06T16:45:22.673Z,15.35
2023-03-06T16:47:50.005Z,15.98
2023-03-06T16:50:32.912Z,18.13
2023-03-06T16:52:59.469Z,16.88
2023-03-06T16:55:27.062Z,15.98
2023-03-06T16:57:53.670Z,15.35
2023-03-06T17:00:21.685Z,17.02
2023-03-06T17:02:49.455Z,15.63
2023-03-06T17:05:16.319Z,15.77
2023-03-06T17:07:42.792Z,17.17
2023-03-06T17:12:37.368Z,15.70
2023-03-06T17:15:04.795Z,16.20
2023-03-06T17:17:31.679Z,16.30
2023-03-06T17:19:58.356Z,16.17
2023-03-06T17:22:25.236Z,15.18
2023-03-06T17:24:52.257Z,15.38
2023-03-06T17:27:20.547Z,14.52
2023-03-06T17:29:47.616Z,15.38
2023-03-06T17:32:14.461Z,14.68
2023-03-06T17:34:41.202Z,16.20
2023-03-06T17:39:36.653Z,14.30
2023-03-06T17:42:04.618Z,14.65
2023-03-06T17:44:32.372Z,15.40
2023-03-06T17:46:59.239Z,14.68
2023-03-06T17:49:25.737Z,14.52
2023-03-06T17:54:19.726Z,12.23
2023-03-06T17:56:46.326Z,14.70
2023-03-06T17:59:12.872Z,14.38
2023-03-06T18:01:39.420Z,15.55
2023-03-06T18:04:06.280Z,14.10
2023-03-06T18:06:33.785Z,14.55
2023-03-06T18:09:02.382Z,14.63
2023-03-06T18:11:28.997Z,15.48
2023-03-06T18:13:55.477Z,15.40
2023-03-06T18:16:24.944Z,14.68
2023-03-06T18:18:53.424Z,15.68
2023-03-06T18:21:21.164Z,15.32
2023-03-06T18:23:47.710Z,14.20
2023-03-06T18:26:28.305Z,15.85
2023-03-06T18:28:57.604Z,14.48
2023-03-06T18:31:33.769Z,14.35
2023-03-06T18:34:04.286Z,16.67
2023-03-06T18:36:33.032Z,16.65
2023-03-06T18:39:02.028Z,15.35
2023-03-06T18:41:28.504Z,16.17
2023-03-06T18:46:23.677Z,15.35
2023-03-06T18:48:50.292Z,16.42
2023-03-06T18:51:17.781Z,15.73
2023-03-06T18:53:44.354Z,15.40
2023-03-06T18:56:21.313Z,15.35
2023-03-06T19:01:15.376Z,15.95
2023-03-06T19:03:42.060Z,16.10
2023-03-06T19:06:11.759Z,15.60
2023-03-06T19:08:39.449Z,16.95
2023-03-06T19:11:15.417Z,16.27
2023-03-06T19:13:42.246Z,16.65
2023-03-06T19:16:15.767Z,16.00
2023-03-06T19:18:42.264Z,17.67
2023-03-06T19:23:36.387Z,18.67
2023-03-06T19:26:02.884Z,17.48
2023-03-06T19:28:29.447Z,18.52
2023-03-06T19:30:56.952Z,18.83
2023-03-06T19:33:23.600Z,19.42
2023-03-06T19:35:50.152Z,23.58
2023-03-06T19:38:16.764Z,20.50
2023-03-06T19:40:52.160Z,24.33
2023-03-06T19:43:18.680Z,22.40
2023-03-06T19:45:45.296Z,18.42
2023-03-06T19:48:12.496Z,19.75
2023-03-06T19:50:40.261Z,18.85
2023-03-06T19:53:07.745Z,18.58
2023-03-06T19:55:34.633Z,20.27
2023-03-06T19:58:01.174Z,18.00
2023-03-06T20:00:28.131Z,17.92
2023-03-06T20:02:55.272Z,19.65
2023-03-06T20:05:22.257Z,65.85
2023-03-06T20:07:49.757Z,27.13
2023-03-06T20:10:16.749Z,30.55
2023-03-06T20:12:43.232Z,21.20
2023-03-06T20:15:10.536Z,27.38
2023-03-06T20:17:40.369Z,21.63
2023-03-06T20:20:10.749Z,21.02
2023-03-06T20:22:37.340Z,18.95
2023-03-06T20:25:04.433Z,20.73
2023-03-06T20:27:30.928Z,19.85
2023-03-06T20:32:23.853Z,20.20
2023-03-06T20:34:50.389Z,18.75
2023-03-06T20:37:16.871Z,18.20
2023-03-06T20:39:43.357Z,16.23
2023-03-06T20:42:09.877Z,16.23
2023-03-06T20:44:36.497Z,19.10
2023-03-06T20:47:02.961Z,17.85
2023-03-06T20:49:29.472Z,18.98
2023-03-06T20:51:56.693Z,17.02
2023-03-06T20:54:23.193Z,17.65
2023-03-06T20:56:50.244Z,16.50
2023-03-06T20:59:16.918Z,17.52
2023-03-06T21:01:45.340Z,19.00
2023-03-06T21:04:14.017Z,18.98
2023-03-06T21:06:43.539Z,18.10
2023-03-06T21:09:10.832Z,19.55
2023-03-06T21:11:37.296Z,18.80
2023-03-06T21:16:30.467Z,19.10
2023-03-06T21:18:59.310Z,19.20
2023-03-06T21:21:30.448Z,19.33
2023-03-06T21:23:57.590Z,20.15
2023-03-06T21:26:27.511Z,18.17
2023-03-06T21:28:54.338Z,17.27
2023-03-06T21:31:22.148Z,18.42
2023-03-06T21:33:49.984Z,18.08
2023-03-06T21:36:18.678Z,18.38
2023-03-06T21:38:45.498Z,19.80
2023-03-06T21:41:19.163Z,18.50
2023-03-06T21:43:45.800Z,19.25
2023-03-06T21:46:13.015Z,18.10
2023-03-06T21:48:39.681Z,18.48
2023-03-06T21:51:15.692Z,19.55
2023-03-06T21:53:43.249Z,18.38
2023-03-06T21:56:11.027Z,18.55
2023-03-06T21:58:37.584Z,18.42
2023-03-06T22:01:16.871Z,18.60
2023-03-06T22:03:43.594Z,18.45
2023-03-06T22:06:14.480Z,19.42
2023-03-06T22:08:41.681Z,16.75
2023-03-06T22:11:11.274Z,18.33
2023-03-06T22:13:38.333Z,19.00
2023-03-06T22:16:06.039Z,19.02
2023-03-06T22:18:33.225Z,18.50
2023-03-06T22:20:59.836Z,17.27
2023-03-06T22:23:26.659Z,20.30
2023-03-06T22:25:53.184Z,19.33
2023-03-06T22:28:19.740Z,18.60
2023-03-06T22:30:46.225Z,19.40
2023-03-06T22:33:12.736Z,17.75
2023-03-06T22:35:39.377Z,17.33
2023-03-06T22:38:06.022Z,19.70
2023-03-06T22:40:33.291Z,18.67
2023-03-06T22:42:59.851Z,18.77
2023-03-06T22:45:27.115Z,19.20
2023-03-06T22:48:02.328Z,20.90
2023-03-06T22:50:35.700Z,18.70
2023-03-06T22:53:02.186Z,18.98
2023-03-06T22:57:55.133Z,18.55
2023-03-06T23:00:21.749Z,18.13
2023-03-06T23:18:10.843Z,18.17
2023-03-06T23:20:55.697Z,18.45
2023-03-06T23:23:42.068Z,17.88
2023-03-06T23:26:13.393Z,19.63
2023-03-06T23:28:40.726Z,18.13
2023-03-06T23:31:16.663Z,18.75
2023-03-06T23:33:43.230Z,19.67
2023-03-06T23:36:11.936Z,18.95
2023-03-06T23:38:39.016Z,18.70
2023-03-06T23:41:09.022Z,17.90
2023-03-06T23:43:36.397Z,19.05
2023-03-06T23:46:03.631Z,18.85
2023-03-06T23:48:30.452Z,18.95
2023-03-06T23:50:57.345Z,18.38
2023-03-06T23:53:23.972Z,19.00
2023-03-06T23:55:51.549Z,18.63
2023-03-06T23:58:19.047Z,18.63
